Startpagina
METAR-TAF:

METAR-TAF

Vliegvelden :

Georgetown, Ascension

breedte: 07-58S, lengte: 014-24W, hoogte: 86 m

Actueel weer

Dit bericht is 6 uur en het 57 minuten geleden gemaakt, om 12:50 UTC
Wind 15 kt uit het zuidzuidoosten
Temperatuur 30°C
Vochtigheid 59%
Druk 1013 hPa
Zicht 10 km of meer
Weinig wolken op 2400 ft

METAR: FHAW 281250Z 15015KT 9999 FEW024 30/21 Q1013 NOSIG RMK BLU BLU

Tijdstip: 19:47 (19:47 UTC)

Verwachting

Dit bericht is 9 uur en het 17 minuten geleden gemaakt, om 10:30 UTC
Verwachting geldig van 28 om 12 UTC tot 29 om 06 UTC
Wind 15 kt uit het zuidoosten
Zicht 10 km of meer
Weinig wolken op 2000 ft
Kans 30% :
Tijdelijke
van 28 om 18 UTC tot 29 om 06 UTC
Zicht: 7000 m
Gebroken wolken op 1600 ft
lichte regenbuien

TAF: FHAW 281030Z 2812/2906 13015KT 9999 FEW020 PROB30 TEMPO 2818/2906 7000 -SHRA BKN016

Waarnemingen en weersverwachtingen van meer dan 4000 vliegvelden (METAR en TAF).

De beschikbare stations zijn de gele en rode punten op de kaart.

Ga met uw muis naar het station om de naam te zien.

Klik dan om waarnemingen en weersverwachtingen te zien.

kaart wijzigen: klik op de groene knoppen met een zwart kruis om in te zoomen, op de groene knop met een streepje om uit te zoomen of op de groene pijlen voor aangrenzende kaarten.


METAR-TAF: